Time;durP1;ratioP1;P1;durP2;ratioP2;P2;SDS_P1;SDS_P2;PMS_P1;PMS_P2;Temp;Humidity;BMP_temperature;BMP_pressure;BME280_temperature;BME280_humidity;BME280_pressure;Samples;Min_cycle;Max_cycle;Signal;HPM_P1;HPM_P2
2020/12/21 00:01:18;;;;;;;9.30;2.05;;;6.70;99.90;;;;;;5094828;28;20492;-72
2020/12/21 00:03:44;;;;;;;8.70;2.40;;;6.60;99.90;;;;;;5094845;28;20012;-72
2020/12/21 00:06:11;;;;;;;8.75;2.45;;;6.60;99.90;;;;;;5095934;28;20046;-72
2020/12/21 00:08:37;;;;;;;7.95;1.83;;;6.70;99.90;;;;;;5096170;28;20171;-72
2020/12/21 00:11:03;;;;;;;12.18;1.98;;;6.70;99.90;;;;;;5095668;28;20028;-72
2020/12/21 00:13:28;;;;;;;9.13;2.03;;;6.60;99.90;;;;;;5096240;28;20024;-73
2020/12/21 00:15:54;;;;;;;7.00;1.48;;;6.60;99.90;;;;;;5096167;28;20034;-75
2020/12/21 00:18:20;;;;;;;7.13;1.63;;;6.60;99.90;;;;;;5095899;28;20024;-73
2020/12/21 00:20:45;;;;;;;10.73;1.90;;;6.60;99.90;;;;;;5094656;28;20107;-73
2020/12/21 00:23:11;;;;;;;12.43;1.65;;;6.60;99.90;;;;;;5095109;28;20100;-74
2020/12/21 00:25:36;;;;;;;4.70;1.00;;;6.60;99.90;;;;;;5095619;28;20035;-73
2020/12/21 00:28:02;;;;;;;9.95;2.70;;;6.60;99.90;;;;;;5095950;28;20040;-72
2020/12/21 00:30:27;;;;;;;11.15;2.15;;;6.60;99.90;;;;;;5095939;28;20016;-75
2020/12/21 00:32:53;;;;;;;9.43;1.63;;;6.60;99.90;;;;;;5094450;28;20481;-73
2020/12/21 00:35:19;;;;;;;12.20;2.22;;;6.50;99.90;;;;;;5095371;28;20387;-74
2020/12/21 00:37:44;;;;;;;10.30;1.58;;;6.50;99.90;;;;;;5096098;28;20027;-74
2020/12/21 00:40:10;;;;;;;13.95;2.38;;;6.80;99.90;;;;;;5095459;28;20016;-74
2020/12/21 00:42:36;;;;;;;4.68;1.08;;;6.40;99.90;;;;;;5093608;28;20031;-74
2020/12/21 00:45:01;;;;;;;6.90;1.45;;;6.30;99.90;;;;;;5095995;28;20027;-72
2020/12/21 00:47:27;;;;;;;8.68;1.33;;;6.40;99.90;;;;;;5095833;28;20512;-72
2020/12/21 00:49:52;;;;;;;9.80;1.40;;;6.30;99.90;;;;;;5095404;28;20054;-73
2020/12/21 00:52:18;;;;;;;10.38;2.03;;;6.30;99.90;;;;;;5095244;28;20477;-73
2020/12/21 00:54:43;;;;;;;11.20;1.83;;;6.30;99.90;;;;;;5096186;28;20045;-73
2020/12/21 00:57:09;;;;;;;7.55;0.82;;;6.30;99.90;;;;;;5095126;28;20369;-74
2020/12/21 00:59:34;;;;;;;9.57;1.25;;;6.30;99.90;;;;;;5095811;28;20017;-75
2020/12/21 01:02:00;;;;;;;9.10;1.30;;;6.20;99.90;;;;;;5095045;28;20023;-73
2020/12/21 01:04:25;;;;;;;4.53;0.82;;;6.20;99.90;;;;;;5095044;28;20024;-74
2020/12/21 01:06:54;;;;;;;4.68;1.05;;;6.20;99.90;;;;;;5096556;28;20020;-73
2020/12/21 01:09:20;;;;;;;19.02;1.40;;;6.20;99.90;;;;;;5095472;28;20027;-73
2020/12/21 01:11:46;;;;;;;7.10;1.70;;;6.10;99.90;;;;;;5095174;28;20481;-72
2020/12/21 01:14:12;;;;;;;11.70;1.65;;;6.10;99.90;;;;;;5095428;28;20028;-72
2020/12/21 01:16:37;;;;;;;14.13;1.75;;;6.10;99.90;;;;;;5095687;28;20058;-72
2020/12/21 01:19:03;;;;;;;7.60;2.25;;;6.10;99.90;;;;;;5095624;28;20024;-73
2020/12/21 01:21:30;;;;;;;10.98;1.38;;;6.00;99.90;;;;;;5095454;28;20142;-73
2020/12/21 01:23:57;;;;;;;10.30;1.58;;;6.10;99.90;;;;;;5093140;28;20020;-73
2020/12/21 01:26:23;;;;;;;6.03;0.80;;;6.00;99.90;;;;;;5092868;28;20526;-73
2020/12/21 01:28:49;;;;;;;7.25;1.40;;;6.00;99.90;;;;;;5094032;28;20156;-74
2020/12/21 01:31:16;;;;;;;6.07;0.85;;;6.00;99.90;;;;;;5092957;28;20489;-74
2020/12/21 01:33:42;;;;;;;8.75;1.95;;;5.90;99.90;;;;;;5094291;28;20025;-73
2020/12/21 01:36:07;;;;;;;9.23;1.48;;;5.90;99.90;;;;;;5092898;28;20024;-73
2020/12/21 01:38:33;;;;;;;5.50;1.75;;;5.90;99.90;;;;;;5093820;28;20024;-74
2020/12/21 01:41:02;;;;;;;11.57;1.52;;;5.90;99.90;;;;;;5092745;28;20439;-73
2020/12/21 01:43:27;;;;;;;7.78;1.13;;;5.80;99.90;;;;;;5094150;28;20099;-73
2020/12/21 01:45:56;;;;;;;11.52;1.23;;;5.80;99.90;;;;;;5093161;28;20044;-74
2020/12/21 01:48:22;;;;;;;3.35;0.90;;;5.70;99.90;;;;;;5094764;28;20036;-73
2020/12/21 01:50:48;;;;;;;7.00;0.77;;;5.70;99.90;;;;;;5094863;28;20020;-73
2020/12/21 01:53:14;;;;;;;7.47;1.23;;;5.70;99.90;;;;;;5094117;28;20089;-74
2020/12/21 01:55:42;;;;;;;6.53;0.90;;;5.80;99.90;;;;;;5096599;28;20027;-74
2020/12/21 01:58:08;;;;;;;6.77;0.63;;;5.80;99.90;;;;;;5097697;28;20028;-73
2020/12/21 02:00:34;;;;;;;8.05;1.13;;;5.70;99.90;;;;;;5096893;28;20043;-73
2020/12/21 02:02:59;;;;;;;8.13;0.90;;;5.70;99.90;;;;;;5098905;28;20012;-74
2020/12/21 02:05:25;;;;;;;6.55;1.73;;;5.70;99.90;;;;;;5097246;28;20035;-74
2020/12/21 02:07:52;;;;;;;4.90;0.65;;;5.70;99.90;;;;;;5098432;28;20026;-74
2020/12/21 02:10:19;;;;;;;11.88;0.85;;;5.60;99.90;;;;;;5096492;28;20477;-73
2020/12/21 02:12:44;;;;;;;10.55;1.27;;;5.70;99.90;;;;;;5097598;28;20031;-75
2020/12/21 02:15:10;;;;;;;9.65;1.42;;;5.70;99.90;;;;;;5096618;28;20021;-74
2020/12/21 02:17:36;;;;;;;10.55;2.33;;;5.60;99.90;;;;;;5097893;28;20016;-74
2020/12/21 02:20:01;;;;;;;6.55;1.15;;;5.70;99.90;;;;;;5098057;28;20085;-74
2020/12/21 02:22:27;;;;;;;16.08;1.58;;;5.70;99.90;;;;;;5097887;28;20157;-73
2020/12/21 02:24:52;;;;;;;8.88;1.50;;;5.60;99.90;;;;;;5097692;28;20045;-74
2020/12/21 02:27:18;;;;;;;5.15;1.45;;;5.60;99.90;;;;;;5097103;28;20082;-73
2020/12/21 02:29:43;;;;;;;13.48;1.17;;;5.60;99.90;;;;;;5096963;28;20035;-73
2020/12/21 02:32:09;;;;;;;15.48;1.77;;;5.70;99.90;;;;;;5097654;28;20027;-74
2020/12/21 02:34:34;;;;;;;12.88;1.63;;;5.70;99.90;;;;;;5096637;28;20031;-73
2020/12/21 02:37:00;;;;;;;9.85;1.30;;;5.70;99.90;;;;;;5097929;28;20048;-73
2020/12/21 02:39:26;;;;;;;7.80;0.80;;;5.60;99.90;;;;;;5096175;28;20032;-73
2020/12/21 02:41:52;;;;;;;9.85;1.25;;;5.60;99.90;;;;;;5097587;28;20031;-73
2020/12/21 02:44:18;;;;;;;8.32;1.40;;;5.70;99.90;;;;;;5096546;28;20020;-73
2020/12/21 02:46:45;;;;;;;10.65;1.65;;;5.60;99.90;;;;;;5095599;28;20534;-73
2020/12/21 02:49:11;;;;;;;12.25;1.08;;;5.60;99.90;;;;;;5095916;28;20056;-73
2020/12/21 02:51:37;;;;;;;9.77;1.10;;;5.70;99.90;;;;;;5097490;28;20024;-72
2020/12/21 02:54:02;;;;;;;5.15;1.05;;;5.70;99.90;;;;;;5095763;28;20366;-74
2020/12/21 02:56:28;;;;;;;8.13;1.30;;;5.70;99.90;;;;;;5095509;28;20016;-75
2020/12/21 02:58:53;;;;;;;7.63;1.60;;;5.80;99.90;;;;;;5096706;28;20129;-75
2020/12/21 03:01:22;;;;;;;13.40;1.33;;;5.70;99.90;;;;;;5096435;28;20023;-75
2020/12/21 03:03:48;;;;;;;8.65;2.08;;;5.60;99.90;;;;;;5095456;28;20024;-75
2020/12/21 03:06:16;;;;;;;7.00;1.00;;;5.60;99.90;;;;;;5097184;28;20020;-77
2020/12/21 03:08:42;;;;;;;11.18;1.58;;;5.60;99.90;;;;;;5097400;28;20103;-75
2020/12/21 03:11:09;;;;;;;7.97;1.25;;;5.40;99.90;;;;;;5095700;28;20060;-77
2020/12/21 03:13:35;;;;;;;6.70;2.42;;;5.50;99.90;;;;;;5097461;28;20077;-76
2020/12/21 03:16:00;;;;;;;10.00;1.70;;;5.40;99.90;;;;;;5095441;28;20044;-76
2020/12/21 03:18:26;;;;;;;6.25;1.17;;;5.40;99.90;;;;;;5098094;28;20052;-77
2020/12/21 03:20:51;;;;;;;6.35;0.93;;;5.40;99.90;;;;;;5096083;28;20024;-77
2020/12/21 03:23:17;;;;;;;6.05;1.50;;;5.30;99.90;;;;;;5096647;28;20031;-73
2020/12/21 03:25:42;;;;;;;5.65;1.00;;;5.30;99.90;;;;;;5097105;28;20046;-74
2020/12/21 03:28:08;;;;;;;11.30;1.42;;;5.30;99.90;;;;;;5096642;28;20481;-74
2020/12/21 03:30:34;;;;;;;10.43;1.77;;;5.30;99.90;;;;;;5096719;28;20165;-74
2020/12/21 03:32:59;;;;;;;7.07;1.10;;;5.20;99.90;;;;;;5097276;28;20024;-74
2020/12/21 03:35:26;;;;;;;9.40;1.10;;;5.30;99.90;;;;;;5097413;28;20061;-74
2020/12/21 03:37:51;;;;;;;10.75;1.73;;;5.30;99.90;;;;;;5096986;28;20415;-75
2020/12/21 03:40:17;;;;;;;11.93;1.50;;;5.20;99.90;;;;;;5096102;28;20012;-71
2020/12/21 03:42:42;;;;;;;7.72;1.60;;;5.20;99.90;;;;;;5095557;28;20019;-74
2020/12/21 03:45:08;;;;;;;7.90;0.98;;;5.20;99.90;;;;;;5096725;28;20078;-73
2020/12/21 03:47:34;;;;;;;6.88;1.40;;;5.20;99.90;;;;;;5095511;28;20024;-74
2020/12/21 03:49:59;;;;;;;10.52;1.42;;;5.20;99.90;;;;;;5096588;28;20024;-73
2020/12/21 03:52:25;;;;;;;7.22;0.90;;;5.20;99.90;;;;;;5095971;28;20024;-73
2020/12/21 03:54:50;;;;;;;6.07;0.90;;;5.20;99.90;;;;;;5096032;28;20027;-73
2020/12/21 03:57:16;;;;;;;11.57;1.60;;;5.20;99.90;;;;;;5095487;28;20061;-74
2020/12/21 03:59:41;;;;;;;5.53;1.02;;;5.20;99.90;;;;;;5096659;28;20020;-74
2020/12/21 04:02:07;;;;;;;13.30;1.73;;;5.20;99.90;;;;;;5096185;28;20051;-73
2020/12/21 04:04:32;;;;;;;9.30;1.80;;;5.30;99.90;;;;;;5096155;28;20461;-74
2020/12/21 04:06:58;;;;;;;7.15;0.80;;;5.30;99.90;;;;;;5096592;28;20055;-74
2020/12/21 04:09:24;;;;;;;14.73;1.20;;;5.20;99.90;;;;;;5095188;28;20496;-75
2020/12/21 04:11:49;;;;;;;8.63;1.55;;;5.20;99.90;;;;;;5095555;28;20039;-75
2020/12/21 04:14:15;;;;;;;8.32;1.38;;;5.20;99.90;;;;;;5095812;28;20081;-75
2020/12/21 04:16:40;;;;;;;11.38;1.63;;;5.20;99.90;;;;;;5095749;28;20106;-74
2020/12/21 04:19:06;;;;;;;6.82;1.33;;;5.10;99.90;;;;;;5095729;28;20103;-74
2020/12/21 04:21:31;;;;;;;4.05;1.02;;;5.10;99.90;;;;;;5096118;28;20028;-75
2020/12/21 04:23:57;;;;;;;5.10;0.73;;;5.10;99.90;;;;;;5095972;28;20106;-77
2020/12/21 04:26:23;;;;;;;9.13;2.17;;;5.10;99.90;;;;;;5094436;28;20024;-75
2020/12/21 04:28:48;;;;;;;8.98;1.10;;;5.10;99.90;;;;;;5095062;28;20032;-75
2020/12/21 04:31:14;;;;;;;6.28;1.35;;;5.10;99.90;;;;;;5096171;28;20024;-74
2020/12/21 04:33:40;;;;;;;8.85;1.80;;;5.20;99.90;;;;;;5094956;28;20385;-74
2020/12/21 04:36:12;;;;;;;6.80;0.90;;;5.20;99.90;;;;;;5095535;28;20026;-74
2020/12/21 04:38:39;;;;;;;7.88;1.80;;;5.20;99.90;;;;;;5094561;28;20026;-74
2020/12/21 04:41:05;;;;;;;6.82;1.60;;;5.30;99.90;;;;;;5095344;28;20024;-76
2020/12/21 04:43:32;;;;;;;6.63;1.63;;;5.20;99.90;;;;;;5095561;28;20089;-74
2020/12/21 04:46:07;;;;;;;10.18;1.17;;;5.20;99.90;;;;;;5095573;28;20043;-74
2020/12/21 04:48:38;;;;;;;10.32;1.77;;;5.30;99.90;;;;;;5096342;28;20457;-73
2020/12/21 04:51:05;;;;;;;10.35;1.23;;;5.30;99.90;;;;;;5095218;28;20028;-73
2020/12/21 04:53:31;;;;;;;9.88;1.40;;;5.30;99.90;;;;;;5093856;28;20024;-72
2020/12/21 04:55:56;;;;;;;13.95;1.65;;;5.40;99.90;;;;;;5095138;28;20024;-73
2020/12/21 04:58:22;;;;;;;9.82;1.35;;;5.40;99.90;;;;;;5095607;28;20043;-72
2020/12/21 05:00:48;;;;;;;9.52;1.52;;;5.40;99.90;;;;;;5093775;28;20025;-72
2020/12/21 05:03:13;;;;;;;11.02;2.20;;;5.40;99.90;;;;;;5094307;28;20020;-75
2020/12/21 05:05:43;;;;;;;9.23;2.25;;;5.30;99.90;;;;;;5095261;28;20517;-76
2020/12/21 05:08:17;;;;;;;2.78;0.70;;;5.30;99.90;;;;;;5093733;28;20023;-73
2020/12/21 05:10:57;;;;;;;10.45;1.08;;;5.20;99.90;;;;;;5093819;28;20020;-72
2020/12/21 05:13:22;;;;;;;11.45;1.83;;;5.20;99.90;;;;;;5094921;28;20393;-72
2020/12/21 05:15:52;;;;;;;7.65;1.45;;;5.20;99.90;;;;;;5095269;28;20028;-73
2020/12/21 05:18:23;;;;;;;5.57;0.82;;;5.20;99.90;;;;;;5095192;28;20020;-73
2020/12/21 05:20:58;;;;;;;6.60;1.00;;;5.20;99.90;;;;;;5094858;28;20100;-72
2020/12/21 05:23:23;;;;;;;9.20;1.70;;;5.20;99.90;;;;;;5094489;28;20028;-72
2020/12/21 05:26:00;;;;;;;10.23;1.42;;;5.20;99.90;;;;;;5094462;28;20049;-73
2020/12/21 05:28:31;;;;;;;10.63;0.80;;;5.10;99.90;;;;;;5094817;28;20039;-73
2020/12/21 05:31:08;;;;;;;4.65;1.08;;;5.10;99.90;;;;;;5098214;28;20034;-73
2020/12/21 05:33:45;;;;;;;6.25;1.08;;;5.00;99.90;;;;;;5099374;28;20114;-73
2020/12/21 05:36:13;;;;;;;6.75;0.93;;;5.00;99.90;;;;;;5099333;28;20024;-73
2020/12/21 05:38:41;;;;;;;7.90;1.50;;;4.90;99.90;;;;;;5099157;28;20532;-75
2020/12/21 05:41:12;;;;;;;10.48;1.52;;;5.00;99.90;;;;;;5098558;28;20024;-75
2020/12/21 05:43:40;;;;;;;9.85;1.52;;;5.00;99.90;;;;;;5098762;28;20028;-75
2020/12/21 05:46:14;;;;;;;11.88;1.95;;;5.00;99.90;;;;;;5097441;28;20024;-73
2020/12/21 05:48:48;;;;;;;9.48;1.00;;;4.90;99.90;;;;;;5098833;28;20481;-75
2020/12/21 05:51:22;;;;;;;6.15;1.52;;;4.90;99.90;;;;;;5098917;28;20048;-73
2020/12/21 05:53:51;;;;;;;21.92;2.47;;;5.00;99.90;;;;;;5097182;28;20024;-72
2020/12/21 05:56:16;;;;;;;8.27;2.25;;;4.90;99.90;;;;;;5097083;28;20023;-74
2020/12/21 05:58:42;;;;;;;12.45;1.48;;;4.90;99.90;;;;;;5097761;28;20112;-74
2020/12/21 06:01:11;;;;;;;6.80;1.88;;;4.90;99.90;;;;;;5098930;28;20041;-73
2020/12/21 06:03:51;;;;;;;15.23;1.98;;;5.00;99.90;;;;;;5096840;28;20384;-73
2020/12/21 06:06:19;;;;;;;11.18;2.35;;;5.00;99.90;;;;;;5097950;28;20024;-72
2020/12/21 06:08:47;;;;;;;6.35;0.93;;;5.00;99.90;;;;;;5098022;28;20020;-72
2020/12/21 06:11:21;;;;;;;8.15;0.98;;;5.00;99.90;;;;;;5097210;28;20026;-73
2020/12/21 06:14:09;;;;;;;9.55;1.65;;;5.00;99.90;;;;;;5098481;28;20035;-73
2020/12/21 06:16:38;;;;;;;9.85;1.23;;;5.00;99.90;;;;;;5099206;28;20021;-73
2020/12/21 06:19:06;;;;;;;7.00;1.27;;;5.00;99.90;;;;;;5098517;28;20481;-72
2020/12/21 06:21:33;;;;;;;8.23;2.17;;;5.00;99.90;;;;;;5097529;28;20024;-72
2020/12/21 06:23:59;;;;;;;4.22;0.82;;;5.00;99.90;;;;;;5098389;28;20476;-74
2020/12/21 06:26:36;;;;;;;10.02;0.90;;;5.00;99.90;;;;;;5097892;28;20082;-74
2020/12/21 06:29:04;;;;;;;7.75;1.10;;;5.00;99.90;;;;;;5096270;28;20032;-75
2020/12/21 06:31:40;;;;;;;8.20;1.47;;;5.00;99.90;;;;;;5097705;28;20469;-73
2020/12/21 06:34:07;;;;;;;8.35;0.82;;;5.00;99.90;;;;;;5096514;28;20310;-73
2020/12/21 06:36:33;;;;;;;9.20;0.93;;;5.00;99.90;;;;;;5097889;28;20082;-72
2020/12/21 06:38:59;;;;;;;6.90;1.48;;;5.00;99.90;;;;;;5096176;28;20020;-74
2020/12/21 06:41:26;;;;;;;4.95;1.48;;;5.00;99.90;;;;;;5097597;28;20027;-74
2020/12/21 06:43:56;;;;;;;7.32;1.58;;;5.00;99.90;;;;;;5096520;28;20499;-74
2020/12/21 06:46:21;;;;;;;6.35;0.77;;;5.00;99.90;;;;;;5097518;28;20077;-72
2020/12/21 06:48:59;;;;;;;10.73;1.30;;;5.00;99.90;;;;;;5095597;28;20388;-73
2020/12/21 06:51:25;;;;;;;9.40;1.90;;;5.00;99.90;;;;;;5097362;28;20388;-74
2020/12/21 06:54:04;;;;;;;8.23;1.35;;;5.00;99.90;;;;;;5097742;28;20104;-73
2020/12/21 06:56:30;;;;;;;10.32;1.42;;;5.00;99.90;;;;;;5096656;28;20028;-73
2020/12/21 06:58:57;;;;;;;10.73;0.82;;;5.00;99.90;;;;;;5098283;28;20056;-73
2020/12/21 07:01:24;;;;;;;8.50;0.88;;;5.00;99.90;;;;;;5098205;28;20026;-74
2020/12/21 07:03:51;;;;;;;9.93;0.70;;;5.00;99.90;;;;;;5097596;28;20023;-74
2020/12/21 07:06:17;;;;;;;5.57;0.50;;;5.10;99.90;;;;;;5097933;28;20028;-74
2020/12/21 07:08:43;;;;;;;5.50;0.80;;;5.20;99.90;;;;;;5095837;28;20081;-75
2020/12/21 07:11:27;;;;;;;6.32;1.13;;;5.20;99.90;;;;;;5095655;28;20028;-75
2020/12/21 07:13:54;;;;;;;7.15;1.25;;;5.10;99.90;;;;;;5097419;28;20024;-74
2020/12/21 07:16:20;;;;;;;6.03;0.57;;;5.20;99.90;;;;;;5097109;28;20024;-73
2020/12/21 07:18:48;;;;;;;9.82;1.17;;;5.30;99.90;;;;;;5095223;28;20028;-73
2020/12/21 07:21:14;;;;;;;5.97;1.20;;;5.30;99.90;;;;;;5095471;28;20477;-73
2020/12/21 07:23:41;;;;;;;7.45;0.98;;;5.30;99.90;;;;;;5096625;28;20020;-74
2020/12/21 07:26:07;;;;;;;7.13;0.50;;;5.30;99.90;;;;;;5095501;28;20109;-74
2020/12/21 07:28:36;;;;;;;7.95;1.05;;;5.30;99.90;;;;;;5095181;22;20036;-73
2020/12/21 07:31:09;;;;;;;;;;;5.70;99.90;;;;;;5055704;28;20135;-74
2020/12/21 07:33:47;;;;;;;6.72;1.10;;;5.40;99.90;;;;;;5055487;28;19954;-73
2020/12/21 07:36:12;;;;;;;4.70;0.40;;;5.40;99.90;;;;;;5055301;28;20056;-73
2020/12/21 07:38:38;;;;;;;3.33;0.60;;;5.40;99.90;;;;;;5056377;28;20462;-73
2020/12/21 07:41:04;;;;;;;8.48;1.05;;;5.40;99.90;;;;;;5056517;28;20104;-75
2020/12/21 07:43:36;;;;;;;7.97;1.02;;;5.40;99.90;;;;;;5055469;28;20075;-74
2020/12/21 07:46:09;;;;;;;7.20;0.52;;;5.50;99.90;;;;;;5055928;28;20107;-74
2020/12/21 07:48:35;;;;;;;4.22;1.02;;;5.50;99.90;;;;;;5055815;28;20029;-74
2020/12/21 07:51:03;;;;;;;7.80;1.20;;;5.50;99.90;;;;;;5054432;28;20059;-74
2020/12/21 07:53:35;;;;;;;8.73;1.33;;;5.50;99.90;;;;;;5053600;28;20021;-74
2020/12/21 07:56:01;;;;;;;5.45;0.70;;;5.60;99.90;;;;;;5054470;28;20025;-74
2020/12/21 07:58:26;;;;;;;6.63;0.75;;;5.60;99.90;;;;;;5053628;28;20375;-74
2020/12/21 08:00:57;;;;;;;7.97;1.45;;;5.60;99.90;;;;;;5055022;28;20440;-74
2020/12/21 08:03:25;;;;;;;10.35;1.27;;;5.70;99.90;;;;;;5056660;28;20017;-73
2020/12/21 08:06:12;;;;;;;6.63;0.90;;;5.70;99.90;;;;;;5057069;28;20424;-74
2020/12/21 08:08:40;;;;;;;5.97;0.95;;;5.70;99.90;;;;;;5056875;28;20027;-74
2020/12/21 08:11:12;;;;;;;5.90;1.63;;;5.70;99.90;;;;;;5054114;28;20028;-74
2020/12/21 08:13:40;;;;;;;6.55;1.17;;;5.80;99.90;;;;;;5055392;28;20558;-75
2020/12/21 08:16:08;;;;;;;7.50;1.13;;;5.80;99.90;;;;;;5056136;28;20021;-75
2020/12/21 08:18:34;;;;;;;10.15;1.77;;;5.90;99.90;;;;;;5056376;28;20048;-75
2020/12/21 08:21:00;;;;;;;8.65;1.63;;;5.90;99.90;;;;;;5055870;28;20021;-75
2020/12/21 08:23:27;;;;;;;5.50;0.90;;;6.00;99.90;;;;;;5055515;28;20017;-75
2020/12/21 08:25:54;;;;;;;12.70;1.70;;;6.00;99.90;;;;;;5054867;28;20493;-75
2020/12/21 08:28:31;;;;;;;7.00;1.70;;;6.00;99.90;;;;;;5055760;28;20037;-75
2020/12/21 08:31:21;;;;;;;8.20;2.05;;;6.10;99.90;;;;;;5054389;28;20486;-75
2020/12/21 08:33:59;;;;;;;5.32;1.05;;;6.20;99.90;;;;;;5056402;28;20021;-75
2020/12/21 08:36:36;;;;;;;4.57;1.23;;;6.20;99.90;;;;;;5054857;28;20025;-75
2020/12/21 08:39:16;;;;;;;6.55;1.42;;;6.30;99.90;;;;;;5056015;28;20051;-76
2020/12/21 08:41:52;;;;;;;10.05;1.52;;;6.30;99.90;;;;;;5055052;28;20029;-76
2020/12/21 08:44:28;;;;;;;12.98;1.20;;;6.40;99.90;;;;;;5056257;28;20498;-76
2020/12/21 08:47:00;;;;;;;8.27;1.40;;;6.40;99.90;;;;;;5055048;28;20014;-76
2020/12/21 08:49:27;;;;;;;6.93;1.60;;;6.60;99.90;;;;;;5054902;28;20021;-76
2020/12/21 08:51:59;;;;;;;9.95;1.15;;;6.60;99.90;;;;;;5055632;28;20024;-76
2020/12/21 08:54:25;;;;;;;11.45;2.53;;;6.60;99.90;;;;;;5056424;28;20500;-76
2020/12/21 08:56:52;;;;;;;4.72;0.80;;;6.70;99.90;;;;;;5055064;28;20024;-76
2020/12/21 08:59:18;;;;;;;10.70;1.85;;;6.70;99.90;;;;;;5054458;28;20029;-76
2020/12/21 09:01:44;;;;;;;11.20;1.75;;;6.80;99.90;;;;;;5054137;28;20171;-76
2020/12/21 09:04:11;;;;;;;10.93;2.05;;;6.80;99.90;;;;;;5055238;28;20025;-75
2020/12/21 09:06:39;;;;;;;5.55;1.63;;;6.80;99.90;;;;;;5053289;28;20025;-75
2020/12/21 09:09:06;;;;;;;8.18;1.85;;;6.90;99.90;;;;;;5054978;28;20486;-75
2020/12/21 09:11:31;;;;;;;11.10;1.52;;;6.90;99.90;;;;;;5055130;28;20021;-75
2020/12/21 09:13:57;;;;;;;9.82;1.58;;;7.00;99.90;;;;;;5053263;28;20548;-76
2020/12/21 09:16:31;;;;;;;5.80;1.50;;;7.00;99.90;;;;;;5053967;28;20024;-75
2020/12/21 09:18:59;;;;;;;8.38;1.95;;;7.00;99.90;;;;;;5055110;28;20398;-75
2020/12/21 09:21:27;;;;;;;4.93;1.07;;;7.00;99.90;;;;;;5055462;28;20043;-76
2020/12/21 09:23:57;;;;;;;5.47;1.73;;;7.10;99.90;;;;;;5055443;28;20017;-75
2020/12/21 09:26:24;;;;;;;6.55;1.15;;;7.10;99.90;;;;;;5054993;28;20052;-76
2020/12/21 09:28:51;;;;;;;6.95;2.25;;;7.20;99.90;;;;;;5054782;28;20029;-75
2020/12/21 09:31:18;;;;;;;6.25;1.58;;;7.20;99.90;;;;;;5054000;28;20017;-76
2020/12/21 09:33:45;;;;;;;5.03;0.98;;;7.20;99.90;;;;;;5055075;28;20393;-76
2020/12/21 09:36:11;;;;;;;3.63;1.45;;;7.20;99.90;;;;;;5054804;28;20546;-76
2020/12/21 09:38:37;;;;;;;8.07;1.10;;;7.20;99.90;;;;;;5053501;28;20020;-75
2020/12/21 09:41:04;;;;;;;8.60;0.85;;;7.20;99.90;;;;;;5053909;28;20036;-76
2020/12/21 09:43:29;;;;;;;7.85;1.52;;;7.30;99.90;;;;;;5053896;28;20079;-75
2020/12/21 09:45:55;;;;;;;7.05;1.60;;;7.30;99.90;;;;;;5053565;28;20033;-76
2020/12/21 09:48:21;;;;;;;8.18;1.90;;;7.40;99.90;;;;;;5053966;28;20025;-75
2020/12/21 09:50:47;;;;;;;9.48;1.80;;;7.40;99.90;;;;;;5055199;28;20059;-76
2020/12/21 09:53:12;;;;;;;9.60;1.42;;;7.40;99.90;;;;;;5053435;28;20055;-76
2020/12/21 09:55:38;;;;;;;10.40;2.40;;;7.40;99.90;;;;;;5054619;28;20032;-76
2020/12/21 09:58:04;;;;;;;5.68;1.67;;;7.40;99.90;;;;;;5053242;28;20390;-75
2020/12/21 10:00:30;;;;;;;8.23;1.92;;;7.40;99.90;;;;;;5053666;28;20021;-76
2020/12/21 10:02:56;;;;;;;9.13;1.25;;;7.40;99.90;;;;;;5054743;28;20028;-77
2020/12/21 10:05:21;;;;;;;4.95;1.20;;;7.40;99.90;;;;;;5053355;28;20064;-76
2020/12/21 10:07:47;;;;;;;6.55;1.27;;;7.40;99.90;;;;;;5055004;28;20017;-77
2020/12/21 10:10:12;;;;;;;15.93;2.30;;;7.40;99.90;;;;;;5053691;28;20043;-76
2020/12/21 10:12:38;;;;;;;6.45;1.98;;;7.40;99.90;;;;;;5052657;28;20021;-75
2020/12/21 10:15:04;;;;;;;3.65;0.93;;;7.40;99.90;;;;;;5054369;28;20027;-76
2020/12/21 10:17:29;;;;;;;10.20;2.10;;;7.50;99.90;;;;;;5056859;28;20021;-77
2020/12/21 10:19:55;;;;;;;6.80;2.15;;;7.50;99.90;;;;;;5058338;28;20025;-77
2020/12/21 10:22:20;;;;;;;8.30;1.98;;;7.60;99.90;;;;;;5058790;28;20025;-77
2020/12/21 10:24:46;;;;;;;6.47;0.85;;;7.50;99.90;;;;;;5058042;28;20033;-76
2020/12/21 10:27:11;;;;;;;6.03;2.00;;;7.60;99.90;;;;;;5056729;28;20040;-76
2020/12/21 10:29:37;;;;;;;4.07;1.63;;;7.60;99.90;;;;;;5056299;28;20044;-76
2020/12/21 10:32:02;;;;;;;15.07;2.60;;;7.60;99.90;;;;;;5056707;28;20024;-76
2020/12/21 10:34:28;;;;;;;5.03;1.58;;;7.60;99.90;;;;;;5058329;28;20056;-76
2020/12/21 10:36:53;;;;;;;7.22;1.90;;;7.60;99.90;;;;;;5056234;28;20102;-75
2020/12/21 10:39:20;;;;;;;6.07;1.20;;;7.60;99.90;;;;;;5057248;28;20029;-76
2020/12/21 10:41:45;;;;;;;12.85;1.50;;;7.60;99.90;;;;;;5057424;28;20021;-75
2020/12/21 10:44:11;;;;;;;2.40;0.82;;;7.60;99.90;;;;;;5057410;28;20389;-75
2020/12/21 10:46:37;;;;;;;4.78;1.52;;;7.70;99.90;;;;;;5056234;28;20032;-77
2020/12/21 10:49:03;;;;;;;7.63;1.92;;;7.70;99.90;;;;;;5057340;28;20489;-75
2020/12/21 10:51:29;;;;;;;8.63;1.48;;;7.70;99.90;;;;;;5058276;28;20466;-76
2020/12/21 10:53:55;;;;;;;6.97;1.30;;;7.70;99.90;;;;;;5056509;28;20076;-76
2020/12/21 10:56:22;;;;;;;6.80;0.88;;;7.70;99.90;;;;;;5056940;28;20025;-76
2020/12/21 10:58:48;;;;;;;9.65;1.67;;;7.70;99.90;;;;;;5058065;28;20017;-76
2020/12/21 11:01:15;;;;;;;4.95;0.85;;;7.70;99.90;;;;;;5057955;28;20028;-76
2020/12/21 11:03:41;;;;;;;10.60;1.33;;;7.70;99.90;;;;;;5057523;28;20029;-76
2020/12/21 11:06:06;;;;;;;7.47;1.77;;;7.80;99.90;;;;;;5057715;28;20032;-76
2020/12/21 11:08:35;;;;;;;4.00;0.80;;;7.80;99.90;;;;;;5055630;28;20071;-76
2020/12/21 11:11:01;;;;;;;1.73;0.45;;;7.80;99.90;;;;;;5056498;28;20025;-76
2020/12/21 11:13:26;;;;;;;4.50;0.63;;;7.80;99.90;;;;;;5057654;28;20094;-76
2020/12/21 11:15:52;;;;;;;4.95;0.40;;;7.80;99.90;;;;;;5056271;28;20056;-76
2020/12/21 11:18:18;;;;;;;6.38;1.00;;;7.80;99.90;;;;;;5056570;28;20028;-76
2020/12/21 11:20:44;;;;;;;5.10;1.00;;;7.80;99.90;;;;;;5058172;28;20033;-76
2020/12/21 11:23:10;;;;;;;7.32;0.80;;;7.90;99.90;;;;;;5055652;28;20052;-76
2020/12/21 11:25:36;;;;;;;9.35;0.88;;;7.80;99.90;;;;;;5056533;28;20421;-75
2020/12/21 11:28:03;;;;;;;2.58;0.68;;;7.80;99.90;;;;;;5055886;28;20025;-76
2020/12/21 11:30:29;;;;;;;5.07;0.80;;;7.90;99.90;;;;;;5056094;28;20021;-76
2020/12/21 11:32:54;;;;;;;5.15;0.90;;;7.90;99.90;;;;;;5056317;28;20493;-76
2020/12/21 11:35:23;;;;;;;7.68;1.20;;;7.90;99.90;;;;;;5055571;28;20168;-76
2020/12/21 11:37:49;;;;;;;4.55;0.70;;;7.90;99.90;;;;;;5055754;28;20100;-76
2020/12/21 11:40:15;;;;;;;8.85;0.70;;;8.00;99.90;;;;;;5057651;28;20071;-76
2020/12/21 11:42:40;;;;;;;3.88;0.90;;;7.90;99.90;;;;;;5057468;28;20024;-76
2020/12/21 11:45:06;;;;;;;4.50;0.47;;;8.00;99.90;;;;;;5056946;28;20466;-76
2020/12/21 11:47:32;;;;;;;4.57;0.80;;;8.00;99.90;;;;;;5057408;28;20025;-76
2020/12/21 11:49:58;;;;;;;5.30;0.60;;;8.00;99.90;;;;;;5056769;28;20082;-76
2020/12/21 11:52:24;;;;;;;9.15;0.95;;;8.00;99.90;;;;;;5057760;28;20028;-76
2020/12/21 11:54:49;;;;;;;8.93;0.65;;;8.00;99.90;;;;;;5055864;28;20032;-76
2020/12/21 11:57:15;;;;;;;10.60;0.57;;;8.00;99.90;;;;;;5056062;28;20055;-76
2020/12/21 11:59:40;;;;;;;3.90;0.75;;;8.00;99.90;;;;;;5057241;28;20028;-76
2020/12/21 12:02:06;;;;;;;13.07;0.65;;;8.00;99.90;;;;;;5056824;28;20017;-76
2020/12/21 12:04:33;;;;;;;7.45;0.70;;;8.10;99.90;;;;;;5057133;28;20458;-76
2020/12/21 12:07:02;;;;;;;9.63;1.05;;;8.00;99.90;;;;;;5057476;28;20024;-76
2020/12/21 12:09:29;;;;;;;7.53;0.70;;;8.00;99.90;;;;;;5056521;28;20025;-76
2020/12/21 12:11:55;;;;;;;4.43;0.60;;;8.00;99.90;;;;;;5056700;28;20017;-75
2020/12/21 12:14:21;;;;;;;7.43;1.13;;;8.10;99.90;;;;;;5056570;28;20025;-77
2020/12/21 12:16:50;;;;;;;12.15;1.20;;;8.00;99.90;;;;;;5055141;28;20032;-75
2020/12/21 12:19:16;;;;;;;4.00;0.70;;;8.00;99.90;;;;;;5055052;28;20056;-75
2020/12/21 12:21:41;;;;;;;3.13;0.45;;;8.00;99.90;;;;;;5054926;28;20021;-76
2020/12/21 12:24:07;;;;;;;5.70;0.77;;;8.00;99.90;;;;;;5055546;28;20033;-75
2020/12/21 12:26:32;;;;;;;6.50;1.38;;;8.00;99.90;;;;;;5055953;28;20041;-79
2020/12/21 12:28:58;;;;;;;4.18;0.80;;;8.00;99.90;;;;;;5055510;28;20033;-79
2020/12/21 12:31:24;;;;;;;6.30;0.95;;;8.00;99.90;;;;;;5055836;28;20466;-75
2020/12/21 12:33:50;;;;;;;6.22;0.40;;;8.10;99.90;;;;;;5056899;28;20029;-75
2020/12/21 12:36:20;;;;;;;7.32;1.00;;;8.10;99.90;;;;;;5055321;28;20509;-75
2020/12/21 12:38:48;;;;;;;3.15;0.60;;;8.10;99.90;;;;;;5056675;28;20025;-75
2020/12/21 12:41:14;;;;;;;8.13;0.40;;;8.10;99.90;;;;;;5055231;28;20078;-75
2020/12/21 12:43:40;;;;;;;6.35;0.63;;;8.10;99.90;;;;;;5055839;28;20432;-75
2020/12/21 12:46:07;;;;;;;4.65;0.95;;;8.10;99.90;;;;;;5054028;28;20029;-74
2020/12/21 12:48:33;;;;;;;5.72;0.80;;;8.20;99.90;;;;;;5054068;28;20486;-77
2020/12/21 12:50:59;;;;;;;5.32;0.40;;;8.20;99.90;;;;;;5055241;28;20021;-76
2020/12/21 12:53:25;;;;;;;1.63;0.95;;;8.20;99.90;;;;;;5055854;28;20036;-76
2020/12/21 12:55:50;;;;;;;7.60;0.60;;;8.20;99.90;;;;;;5054354;28;20025;-77